Time;durP1;ratioP1;P1;durP2;ratioP2;P2;SDS_P1;SDS_P2;PMS_P1;PMS_P2;Temp;Humidity;BMP_temperature;BMP_pressure;BME280_temperature;BME280_humidity;BME280_pressure;Samples;Min_cycle;Max_cycle;Signal;HPM_P1;HPM_P2
2020/12/22 00:00:53;;;;;;;11.77;7.05;;;5.50;99.90;;;;;;4985787;28;20276;-76
2020/12/22 00:03:18;;;;;;;9.55;6.25;;;5.60;99.90;;;;;;4977847;28;20027;-76
2020/12/22 00:05:45;;;;;;;10.38;6.15;;;5.50;99.90;;;;;;4986911;28;20053;-76
2020/12/22 00:08:12;;;;;;;8.13;4.80;;;5.60;99.90;;;;;;4982963;28;20023;-76
2020/12/22 00:10:38;;;;;;;8.10;5.28;;;5.60;99.90;;;;;;4976946;28;20089;-76
2020/12/22 00:13:03;;;;;;;10.18;5.93;;;5.50;99.90;;;;;;4983390;28;20018;-76
2020/12/22 00:15:29;;;;;;;8.13;5.18;;;5.40;99.90;;;;;;4989045;28;20038;-76
2020/12/22 00:17:55;;;;;;;7.25;4.50;;;5.40;99.90;;;;;;4994187;28;20031;-76
2020/12/22 00:20:21;;;;;;;6.47;4.20;;;5.50;99.90;;;;;;4990338;28;20539;-76
2020/12/22 00:22:51;;;;;;;6.70;4.60;;;5.50;99.90;;;;;;4985317;28;20042;-76
2020/12/22 00:25:17;;;;;;;6.03;3.92;;;5.50;99.90;;;;;;4991077;28;20034;-76
2020/12/22 00:27:42;;;;;;;5.63;3.80;;;5.50;99.90;;;;;;4993930;28;20615;-75
2020/12/22 00:30:08;;;;;;;4.93;3.75;;;5.60;99.90;;;;;;4991770;28;20033;-76
2020/12/22 00:32:35;;;;;;;6.65;4.40;;;5.60;99.90;;;;;;4982705;28;20034;-76
2020/12/22 00:35:00;;;;;;;7.60;3.90;;;5.70;99.90;;;;;;4980876;28;20026;-76
2020/12/22 00:37:26;;;;;;;5.75;4.15;;;5.80;99.90;;;;;;4985607;28;20037;-75
2020/12/22 00:39:52;;;;;;;6.28;4.00;;;5.90;99.90;;;;;;4982954;28;20030;-76
2020/12/22 00:42:18;;;;;;;5.30;4.07;;;6.00;99.90;;;;;;4986855;28;20033;-75
2020/12/22 00:44:43;;;;;;;7.18;4.72;;;5.90;99.90;;;;;;4991870;28;20125;-75
2020/12/22 00:47:11;;;;;;;9.73;5.88;;;6.00;99.90;;;;;;4977942;28;20633;-76
2020/12/22 00:49:36;;;;;;;9.20;5.55;;;6.10;99.90;;;;;;4982658;28;20019;-76
2020/12/22 00:52:03;;;;;;;6.13;4.35;;;6.10;99.90;;;;;;4983236;28;20041;-76
2020/12/22 00:54:29;;;;;;;4.70;3.65;;;6.10;99.90;;;;;;4967451;28;20035;-75
2020/12/22 00:56:55;;;;;;;4.85;3.30;;;6.10;99.90;;;;;;4972918;28;20034;-75
2020/12/22 00:59:35;;;;;;;5.47;3.60;;;6.10;99.90;;;;;;4972553;28;20460;-76
2020/12/22 01:02:05;;;;;;;4.93;3.25;;;6.10;99.90;;;;;;4988381;28;20085;-76
2020/12/22 01:04:32;;;;;;;5.28;3.90;;;6.10;99.90;;;;;;4983141;28;20049;-76
2020/12/22 01:06:57;;;;;;;5.70;3.92;;;6.10;99.90;;;;;;4981461;28;20074;-76
2020/12/22 01:09:23;;;;;;;5.78;4.15;;;6.20;99.90;;;;;;4987551;28;20030;-75
2020/12/22 01:11:49;;;;;;;5.57;3.83;;;6.20;99.90;;;;;;4985362;28;20396;-76
2020/12/22 01:14:15;;;;;;;4.60;3.15;;;6.20;99.90;;;;;;4992825;28;20031;-76
2020/12/22 01:16:40;;;;;;;3.95;2.88;;;6.20;99.90;;;;;;4991933;28;20436;-75
2020/12/22 01:19:06;;;;;;;4.72;2.92;;;6.30;99.90;;;;;;4992845;28;20493;-76
2020/12/22 01:21:32;;;;;;;4.20;3.00;;;6.30;99.90;;;;;;4991527;28;20030;-75
2020/12/22 01:23:57;;;;;;;4.07;2.65;;;6.30;99.90;;;;;;4977836;28;20490;-75
2020/12/22 01:26:25;;;;;;;3.97;3.05;;;6.30;99.90;;;;;;4992532;28;20087;-75
2020/12/22 01:28:52;;;;;;;4.75;2.97;;;6.40;99.90;;;;;;4991205;28;20401;-75
2020/12/22 01:31:26;;;;;;;4.18;3.08;;;6.40;99.90;;;;;;4987422;28;20110;-75
2020/12/22 01:33:52;;;;;;;5.05;3.17;;;6.40;99.90;;;;;;4982341;28;20481;-75
2020/12/22 01:36:18;;;;;;;4.50;2.92;;;6.50;99.90;;;;;;4986210;28;20019;-75
2020/12/22 01:38:45;;;;;;;4.18;2.92;;;6.50;99.90;;;;;;4983303;28;20117;-75
2020/12/22 01:41:11;;;;;;;3.35;2.70;;;6.60;99.90;;;;;;4982854;28;20038;-75
2020/12/22 01:43:37;;;;;;;3.60;2.83;;;6.60;99.90;;;;;;4978755;28;20049;-75
2020/12/22 01:46:04;;;;;;;3.00;2.33;;;6.60;99.90;;;;;;4989446;28;20045;-75
2020/12/22 01:48:29;;;;;;;3.10;2.65;;;6.50;99.90;;;;;;4990908;28;20054;-75
2020/12/22 01:50:55;;;;;;;3.58;2.35;;;6.50;99.90;;;;;;4987433;28;20058;-75
2020/12/22 01:53:21;;;;;;;2.85;2.30;;;6.50;99.90;;;;;;4990394;28;20034;-75
2020/12/22 01:55:47;;;;;;;2.63;2.17;;;6.50;99.90;;;;;;4979400;28;20035;-75
2020/12/22 01:58:12;;;;;;;2.63;2.25;;;6.60;99.90;;;;;;4981263;28;20516;-76
2020/12/22 02:00:38;;;;;;;3.67;2.47;;;6.50;99.90;;;;;;4986580;28;20026;-76
2020/12/22 02:03:07;;;;;;;3.28;2.38;;;6.50;99.90;;;;;;4983608;28;20433;-76
2020/12/22 02:05:36;;;;;;;2.50;2.10;;;6.60;99.90;;;;;;4984508;28;20042;-75
2020/12/22 02:08:03;;;;;;;2.28;2.03;;;6.60;99.90;;;;;;4989756;28;20038;-75
2020/12/22 02:10:28;;;;;;;2.33;1.88;;;6.60;99.90;;;;;;4984559;28;20117;-76
2020/12/22 02:12:54;;;;;;;3.00;1.90;;;6.60;99.90;;;;;;4978328;28;20135;-75
2020/12/22 02:15:20;;;;;;;2.25;2.05;;;6.70;99.90;;;;;;4990874;28;20034;-76
2020/12/22 02:17:46;;;;;;;2.80;2.30;;;6.70;99.90;;;;;;4991963;28;20370;-75
2020/12/22 02:20:12;;;;;;;3.22;2.30;;;6.70;99.90;;;;;;4989632;28;20563;-75
2020/12/22 02:22:38;;;;;;;2.78;2.10;;;6.80;99.90;;;;;;4990228;28;20030;-75
2020/12/22 02:25:13;;;;;;;3.28;2.13;;;6.80;99.90;;;;;;4989831;28;20034;-75
2020/12/22 02:27:39;;;;;;;2.30;1.85;;;6.80;99.90;;;;;;4991994;28;20022;-76
2020/12/22 02:30:06;;;;;;;2.25;1.73;;;6.70;99.90;;;;;;4988411;28;20037;-75
2020/12/22 02:32:31;;;;;;;2.70;2.08;;;6.70;99.90;;;;;;4983580;28;20428;-75
2020/12/22 02:34:57;;;;;;;2.90;1.98;;;6.70;99.90;;;;;;4991005;28;20038;-75
2020/12/22 02:37:23;;;;;;;2.30;2.10;;;6.80;99.90;;;;;;4990408;28;20097;-76
2020/12/22 02:39:49;;;;;;;2.28;1.80;;;6.80;99.90;;;;;;4981236;28;20041;-76
2020/12/22 02:42:15;;;;;;;2.33;1.70;;;6.80;99.90;;;;;;4984678;28;20031;-76
2020/12/22 02:44:41;;;;;;;2.50;2.00;;;6.80;99.90;;;;;;4977537;28;20033;-75
2020/12/22 02:47:11;;;;;;;2.00;1.85;;;6.80;99.90;;;;;;4991595;28;20030;-75
2020/12/22 02:49:37;;;;;;;2.65;1.90;;;6.90;99.90;;;;;;4988762;28;20019;-75
2020/12/22 02:52:03;;;;;;;2.22;1.92;;;6.90;99.90;;;;;;4984771;28;20037;-75
2020/12/22 02:54:29;;;;;;;2.55;1.95;;;6.90;99.90;;;;;;4991106;28;20030;-76
2020/12/22 02:56:54;;;;;;;2.35;1.83;;;6.90;99.90;;;;;;4991324;28;20028;-74
2020/12/22 02:59:20;;;;;;;2.58;1.70;;;6.90;99.90;;;;;;4988386;28;20047;-75
2020/12/22 03:01:46;;;;;;;2.30;1.88;;;6.90;99.90;;;;;;4982571;28;20081;-75
2020/12/22 03:04:12;;;;;;;2.75;2.38;;;6.90;99.90;;;;;;4983273;28;20027;-75
2020/12/22 03:06:38;;;;;;;3.95;2.05;;;6.90;99.90;;;;;;4991189;28;20069;-75
2020/12/22 03:09:05;;;;;;;2.00;1.70;;;7.00;99.90;;;;;;4990854;28;20093;-75
2020/12/22 03:11:30;;;;;;;2.92;2.13;;;7.00;99.90;;;;;;4986013;28;20531;-75
2020/12/22 03:13:56;;;;;;;3.25;2.13;;;7.00;99.90;;;;;;4977898;28;20118;-74
2020/12/22 03:16:22;;;;;;;3.30;2.70;;;7.00;99.90;;;;;;4991602;28;20390;-75
2020/12/22 03:18:47;;;;;;;2.50;1.98;;;7.00;99.90;;;;;;4990669;28;20041;-75
2020/12/22 03:21:15;;;;;;;2.83;2.13;;;6.90;99.90;;;;;;4985689;28;20027;-75
2020/12/22 03:23:41;;;;;;;2.67;1.90;;;7.00;99.90;;;;;;4979199;28;20121;-74
2020/12/22 03:26:07;;;;;;;2.25;2.00;;;7.00;99.90;;;;;;4991050;28;20122;-75
2020/12/22 03:28:32;;;;;;;2.30;1.95;;;7.00;99.90;;;;;;4988938;28;20469;-75
2020/12/22 03:30:58;;;;;;;2.72;2.25;;;7.00;99.90;;;;;;4985908;28;20018;-75
2020/12/22 03:33:24;;;;;;;2.42;1.90;;;7.00;99.90;;;;;;4978304;28;20389;-75
2020/12/22 03:35:50;;;;;;;2.05;1.55;;;7.00;99.90;;;;;;4990958;28;20038;-74
2020/12/22 03:38:16;;;;;;;2.60;2.13;;;7.00;99.90;;;;;;4990673;28;20043;-75
2020/12/22 03:40:41;;;;;;;3.10;2.03;;;7.00;99.90;;;;;;4986948;28;20038;-75
2020/12/22 03:43:07;;;;;;;3.35;2.50;;;7.10;99.90;;;;;;4977833;28;20027;-74
2020/12/22 03:45:33;;;;;;;3.38;2.60;;;7.10;99.90;;;;;;4982534;28;20096;-75
2020/12/22 03:47:59;;;;;;;2.72;2.22;;;7.10;99.90;;;;;;4990843;28;20562;-75
2020/12/22 03:50:25;;;;;;;3.83;2.72;;;7.10;99.90;;;;;;4985793;28;20501;-75
2020/12/22 03:52:51;;;;;;;4.05;2.60;;;7.10;99.90;;;;;;4986480;28;20145;-74
2020/12/22 03:55:16;;;;;;;3.83;3.00;;;7.10;99.90;;;;;;4990916;28;20612;-75
2020/12/22 03:57:42;;;;;;;4.70;2.97;;;7.10;99.90;;;;;;4990766;28;20072;-75
2020/12/22 04:00:09;;;;;;;4.05;2.65;;;7.10;99.90;;;;;;4988461;28;20039;-75
2020/12/22 04:02:35;;;;;;;5.18;3.20;;;7.20;99.90;;;;;;4987941;28;20369;-74
2020/12/22 04:05:01;;;;;;;5.50;3.58;;;7.20;99.90;;;;;;4989952;28;20037;-75
2020/12/22 04:07:26;;;;;;;5.32;3.35;;;7.20;99.90;;;;;;4989011;28;20109;-75
2020/12/22 04:09:52;;;;;;;4.72;3.50;;;7.30;99.90;;;;;;4984958;28;20026;-75
2020/12/22 04:12:18;;;;;;;8.23;4.07;;;7.30;99.90;;;;;;4984120;28;20037;-75
2020/12/22 04:14:43;;;;;;;6.97;4.18;;;7.40;99.90;;;;;;4990323;28;20481;-75
2020/12/22 04:17:09;;;;;;;4.93;3.70;;;7.50;99.90;;;;;;4990562;28;20038;-75
2020/12/22 04:19:35;;;;;;;4.82;3.13;;;7.60;99.90;;;;;;4990255;28;20485;-76
2020/12/22 04:22:00;;;;;;;5.40;3.17;;;7.60;99.90;;;;;;4985558;28;20031;-75
2020/12/22 04:24:26;;;;;;;4.07;2.90;;;7.60;99.90;;;;;;4989982;28;20512;-76
2020/12/22 04:26:52;;;;;;;5.35;3.47;;;7.60;99.90;;;;;;4993099;28;20038;-75
2020/12/22 04:29:18;;;;;;;6.72;3.28;;;7.70;99.90;;;;;;4990291;28;20477;-74
2020/12/22 04:31:43;;;;;;;5.15;3.47;;;7.70;99.90;;;;;;4986929;28;20034;-75
2020/12/22 04:34:09;;;;;;;4.18;3.25;;;7.80;99.90;;;;;;4991793;28;20030;-75
2020/12/22 04:36:35;;;;;;;7.65;3.08;;;7.70;99.90;;;;;;4974678;28;20031;-75
2020/12/22 04:39:00;;;;;;;3.97;3.15;;;7.70;99.90;;;;;;4988245;28;20026;-75
2020/12/22 04:41:26;;;;;;;4.60;2.90;;;7.80;99.90;;;;;;4984820;28;20035;-75
2020/12/22 04:43:52;;;;;;;3.42;2.78;;;7.90;99.90;;;;;;4993335;28;20041;-76
2020/12/22 04:46:20;;;;;;;4.32;3.08;;;7.90;99.90;;;;;;4993684;28;20070;-76
2020/12/22 04:48:52;;;;;;;3.83;2.72;;;7.90;99.90;;;;;;4992773;28;20120;-76
2020/12/22 04:51:19;;;;;;;4.38;2.92;;;7.90;99.90;;;;;;4989085;28;20027;-76
2020/12/22 04:53:45;;;;;;;6.30;2.50;;;8.00;99.90;;;;;;4989069;28;20027;-77
2020/12/22 04:56:10;;;;;;;2.90;2.30;;;8.00;99.90;;;;;;4990008;28;20035;-76
2020/12/22 04:58:36;;;;;;;4.60;2.58;;;8.10;99.90;;;;;;4991812;28;20061;-75
2020/12/22 05:01:03;;;;;;;3.03;2.38;;;8.10;99.90;;;;;;4990746;28;20039;-75
2020/12/22 05:03:29;;;;;;;10.77;2.50;;;8.10;99.90;;;;;;4977485;28;20420;-76
2020/12/22 05:05:55;;;;;;;3.03;2.30;;;8.20;99.90;;;;;;4991975;28;20037;-75
2020/12/22 05:08:21;;;;;;;3.58;2.50;;;8.10;99.90;;;;;;4993072;28;20750;-74
2020/12/22 05:10:49;;;;;;;57.55;3.40;;;8.20;99.90;;;;;;4987938;28;20117;-75
2020/12/22 05:13:17;;;;;;;3.35;2.13;;;8.20;99.90;;;;;;4991790;28;20037;-75
2020/12/22 05:15:46;;;;;;;8.40;2.20;;;8.30;99.90;;;;;;4993256;28;20042;-75
2020/12/22 05:18:12;;;;;;;41.63;2.65;;;8.30;99.90;;;;;;4990151;28;20559;-75
2020/12/22 05:20:43;;;;;;;3.95;2.75;;;8.30;99.90;;;;;;4976478;28;20030;-74
2020/12/22 05:23:16;;;;;;;6.13;3.22;;;8.30;99.90;;;;;;4983463;28;20041;-75
2020/12/22 05:25:44;;;;;;;4.38;2.78;;;8.30;99.90;;;;;;4988250;28;20050;-76
2020/12/22 05:28:14;;;;;;;6.07;2.72;;;8.40;99.90;;;;;;4991564;28;20033;-76
2020/12/22 05:30:39;;;;;;;4.22;2.67;;;8.40;99.90;;;;;;4990306;28;20026;-75
2020/12/22 05:33:05;;;;;;;3.95;2.70;;;8.50;99.90;;;;;;4975938;28;20061;-75
2020/12/22 05:35:39;;;;;;;3.55;2.65;;;8.40;99.90;;;;;;4992970;28;20118;-76
2020/12/22 05:38:05;;;;;;;3.95;2.40;;;8.50;99.90;;;;;;4991281;28;20496;-74
2020/12/22 05:40:37;;;;;;;3.47;2.35;;;8.50;99.90;;;;;;4975131;28;20026;-75
2020/12/22 05:43:04;;;;;;;5.63;2.33;;;8.60;99.90;;;;;;4982737;28;20035;-75
2020/12/22 05:45:31;;;;;;;2.95;2.20;;;8.60;99.90;;;;;;4987285;28;20107;-76
2020/12/22 05:47:57;;;;;;;2.15;1.50;;;8.60;99.90;;;;;;4984923;28;20069;-75
2020/12/22 05:50:24;;;;;;;2.10;1.50;;;8.60;99.90;;;;;;4976896;28;20470;-76
2020/12/22 05:52:53;;;;;;;1.25;1.00;;;8.60;99.90;;;;;;4987807;28;20528;-75
2020/12/22 05:55:30;;;;;;;1.33;1.17;;;8.60;99.90;;;;;;4986455;28;20039;-76
2020/12/22 05:58:10;;;;;;;1.17;1.05;;;8.60;99.90;;;;;;4978899;28;20045;-76
2020/12/22 06:00:41;;;;;;;1.48;1.17;;;8.60;99.90;;;;;;4992195;28;20061;-76
2020/12/22 06:03:09;;;;;;;1.25;0.77;;;8.70;99.90;;;;;;4987511;28;20027;-75
2020/12/22 06:05:44;;;;;;;4.60;1.00;;;8.70;99.90;;;;;;4982121;28;20031;-75
2020/12/22 06:08:16;;;;;;;1.90;1.30;;;8.70;99.90;;;;;;4986365;28;20092;-76
2020/12/22 06:10:44;;;;;;;3.70;0.95;;;8.70;99.90;;;;;;4990146;28;20035;-76
2020/12/22 06:13:12;;;;;;;1.95;0.88;;;8.70;99.90;;;;;;4979967;28;20031;-75
2020/12/22 06:15:38;;;;;;;1.40;1.10;;;8.70;99.90;;;;;;4985891;28;20477;-75
2020/12/22 06:18:05;;;;;;;6.93;1.13;;;8.70;99.90;;;;;;4980877;28;20038;-75
2020/12/22 06:20:31;;;;;;;0.85;0.77;;;8.80;99.90;;;;;;4991863;28;20644;-76
2020/12/22 06:23:05;;;;;;;2.55;0.93;;;8.80;99.90;;;;;;4986646;28;20041;-75
2020/12/22 06:25:34;;;;;;;1.05;0.95;;;8.90;99.90;;;;;;4987159;28;20038;-76
2020/12/22 06:28:00;;;;;;;10.85;0.82;;;8.80;99.90;;;;;;4985764;28;20031;-75
2020/12/22 06:30:38;;;;;;;4.20;1.00;;;8.90;99.90;;;;;;4980612;28;20117;-76
2020/12/22 06:33:43;;;;;;;0.95;0.85;;;8.80;99.90;;;;;;4982886;28;20034;-76
2020/12/22 06:36:13;;;;;;;1.02;0.77;;;8.90;99.90;;;;;;4943088;29;20054;-74
2020/12/22 06:38:51;;;;;;;39.80;1.50;;;8.90;99.90;;;;;;4947948;29;20039;-75
2020/12/22 06:41:43;;;;;;;1.23;0.70;;;9.00;99.90;;;;;;4964714;28;20045;-75
2020/12/22 06:44:19;;;;;;;0.70;0.60;;;9.00;99.90;;;;;;4979385;28;20074;-75
2020/12/22 06:46:46;;;;;;;101.55;3.13;;;9.00;99.90;;;;;;4984859;28;20057;-76
2020/12/22 06:49:13;;;;;;;35.67;1.73;;;9.00;99.90;;;;;;4990265;28;20534;-76
2020/12/22 06:51:41;;;;;;;0.57;0.55;;;9.10;99.90;;;;;;4985843;28;20516;-76
2020/12/22 06:54:09;;;;;;;0.32;0.30;;;9.00;99.90;;;;;;4977704;28;20027;-76
2020/12/22 06:56:54;;;;;;;1.15;0.40;;;9.00;99.90;;;;;;4973063;28;20062;-74
2020/12/22 06:59:47;;;;;;;11.13;0.55;;;9.10;99.90;;;;;;4988354;28;20034;-75
2020/12/22 07:02:38;;;;;;;0.30;0.30;;;9.10;99.90;;;;;;4982266;28;20085;-76
2020/12/22 07:05:05;;;;;;;0.30;0.30;;;9.10;99.90;;;;;;4980364;28;20386;-75
2020/12/22 07:07:58;;;;;;;0.50;0.40;;;9.10;99.90;;;;;;4983142;28;20054;-76
2020/12/22 07:10:26;;;;;;;0.40;0.30;;;9.10;99.90;;;;;;4971362;28;20046;-76
2020/12/22 07:12:55;;;;;;;0.40;0.30;;;9.10;99.90;;;;;;4979946;28;20449;-76
2020/12/22 07:15:21;;;;;;;0.50;0.40;;;9.20;99.90;;;;;;4985594;28;20109;-75
2020/12/22 07:17:48;;;;;;;0.30;0.30;;;9.20;99.90;;;;;;4987005;28;20042;-75
2020/12/22 07:20:14;;;;;;;0.90;0.50;;;9.20;99.90;;;;;;4989903;28;20041;-75
2020/12/22 07:22:40;;;;;;;25.75;0.70;;;9.20;99.90;;;;;;4982310;28;20030;-75
2020/12/22 07:25:06;;;;;;;0.80;0.55;;;9.20;99.90;;;;;;4982909;28;20042;-75
2020/12/22 07:27:33;;;;;;;0.63;0.50;;;9.20;99.90;;;;;;4978323;28;20109;-74
2020/12/22 07:29:58;;;;;;;0.63;0.55;;;9.20;99.90;;;;;;4980587;28;20557;-74
2020/12/22 07:32:24;;;;;;;0.80;0.70;;;9.30;99.90;;;;;;4976723;28;20062;-75
2020/12/22 07:34:50;;;;;;;41.60;1.73;;;9.30;99.90;;;;;;4986282;28;20022;-76
2020/12/22 07:37:16;;;;;;;0.80;0.80;;;9.30;99.90;;;;;;4980617;28;20408;-75
2020/12/22 07:39:42;;;;;;;60.67;1.92;;;9.40;99.90;;;;;;4979975;28;20026;-75
2020/12/22 07:42:09;;;;;;;1.35;1.00;;;9.40;99.90;;;;;;4984915;28;20093;-75
2020/12/22 07:44:35;;;;;;;0.73;0.70;;;9.40;99.90;;;;;;4980532;28;20088;-74
2020/12/22 07:47:02;;;;;;;0.80;0.80;;;9.40;99.90;;;;;;4981595;28;20034;-75
2020/12/22 07:49:28;;;;;;;1.20;0.80;;;9.50;99.90;;;;;;4978068;28;20122;-76
2020/12/22 07:51:53;;;;;;;1.00;0.90;;;9.50;99.90;;;;;;4984161;28;20125;-75
2020/12/22 07:54:19;;;;;;;57.72;1.95;;;9.50;99.90;;;;;;5004146;23;20505;-84
2020/12/22 07:56:46;;;;;;;2.15;1.02;;;9.50;99.90;;;;;;4969059;28;20436;-84
2020/12/22 07:59:14;;;;;;;2.22;0.68;;;9.50;99.90;;;;;;4977073;28;20038;-84
2020/12/22 08:01:52;;;;;;;0.90;0.63;;;9.60;99.90;;;;;;4944723;28;20031;-84
2020/12/22 08:04:20;;;;;;;2.47;0.50;;;9.60;99.90;;;;;;4952844;29;20648;-86
2020/12/22 08:06:59;;;;;;;0.77;0.47;;;9.60;99.90;;;;;;4952217;29;20090;-85
2020/12/22 08:09:28;;;;;;;0.70;0.60;;;9.60;99.90;;;;;;4913091;29;20478;-84
2020/12/22 08:11:56;;;;;;;0.60;0.35;;;9.70;99.90;;;;;;4953052;29;20095;-87
2020/12/22 08:14:23;;;;;;;0.50;0.40;;;9.70;99.90;;;;;;4954359;29;20028;-85
2020/12/22 08:16:52;;;;;;;0.60;0.40;;;9.70;99.90;;;;;;4957002;28;20409;-84
2020/12/22 08:19:18;;;;;;;0.40;0.40;;;9.70;99.90;;;;;;4935030;29;20414;-85
2020/12/22 08:21:46;;;;;;;0.40;0.30;;;9.80;99.90;;;;;;4930974;29;20110;-86
2020/12/22 08:24:14;;;;;;;0.50;0.40;;;9.80;99.90;;;;;;4938268;29;20475;-86
2020/12/22 08:26:44;;;;;;;0.35;0.35;;;9.80;99.90;;;;;;4936813;29;20042;-85
2020/12/22 08:29:12;;;;;;;0.20;0.20;;;9.90;99.90;;;;;;4950580;29;20115;-86
2020/12/22 08:31:41;;;;;;;0.32;0.32;;;9.90;99.90;;;;;;4937152;29;20032;-86
2020/12/22 08:34:09;;;;;;;8.05;0.60;;;9.90;99.90;;;;;;4954267;29;20050;-84
2020/12/22 08:36:36;;;;;;;0.30;0.25;;;10.00;99.90;;;;;;4942740;29;20477;-82
2020/12/22 08:39:16;;;;;;;0.40;0.40;;;9.90;99.90;;;;;;4955900;28;20055;-86
2020/12/22 08:41:43;;;;;;;0.50;0.28;;;9.90;99.90;;;;;;4953098;29;20046;-87
2020/12/22 08:44:11;;;;;;;0.20;0.20;;;10.00;99.90;;;;;;4941190;29;20035;-86
2020/12/22 08:46:41;;;;;;;0.35;0.35;;;10.00;99.90;;;;;;4954106;29;20039;-87
2020/12/22 08:49:14;;;;;;;4.03;0.30;;;10.00;99.90;;;;;;4933753;29;20035;-84
2020/12/22 08:51:41;;;;;;;0.30;0.20;;;10.00;99.90;;;;;;4958730;29;20397;-85
2020/12/22 08:54:08;;;;;;;0.82;0.38;;;10.10;99.90;;;;;;4954993;29;20034;-85
2020/12/22 08:56:34;;;;;;;0.35;0.30;;;10.00;99.90;;;;;;4953730;29;20086;-84
2020/12/22 08:59:05;;;;;;;0.25;0.20;;;10.10;99.90;;;;;;4923916;29;20047;-87
2020/12/22 09:01:40;;;;;;;0.30;0.30;;;10.10;99.90;;;;;;4950342;29;20152;-85
2020/12/22 09:04:07;;;;;;;0.20;0.20;;;10.10;99.90;;;;;;4949088;29;20038;-86
2020/12/22 09:06:34;;;;;;;0.10;0.10;;;10.10;99.90;;;;;;4936190;29;20043;-84
2020/12/22 09:09:02;;;;;;;0.20;0.20;;;10.10;99.90;;;;;;4940557;28;20118;-83
2020/12/22 09:11:28;;;;;;;0.20;0.13;;;10.20;99.90;;;;;;4943474;29;20039;-86
2020/12/22 09:14:05;;;;;;;0.20;0.20;;;10.20;99.90;;;;;;4926907;29;20038;-83
2020/12/22 09:16:44;;;;;;;2.47;0.30;;;10.20;99.90;;;;;;4954917;29;20088;-83
2020/12/22 09:19:10;;;;;;;0.13;0.13;;;10.20;99.90;;;;;;4961045;28;20082;-85
2020/12/22 09:21:36;;;;;;;0.20;0.20;;;10.30;99.90;;;;;;4936007;29;20032;-86
2020/12/22 09:24:01;;;;;;;0.20;0.20;;;10.30;99.90;;;;;;4944551;29;20491;-84
2020/12/22 09:26:27;;;;;;;0.10;0.10;;;10.30;99.90;;;;;;4925921;29;20039;-86
2020/12/22 09:28:53;;;;;;;2.05;0.20;;;10.30;99.90;;;;;;4950144;29;20035;-85
2020/12/22 09:31:26;;;;;;;0.10;0.10;;;10.30;99.90;;;;;;4914644;29;20058;-85
2020/12/22 09:33:52;;;;;;;0.20;0.20;;;10.30;99.90;;;;;;4952325;29;20028;-85
2020/12/22 09:36:18;;;;;;;0.93;0.13;;;10.30;99.90;;;;;;4939887;29;20043;-85
2020/12/22 09:38:44;;;;;;;3.75;0.25;;;10.30;99.90;;;;;;4943671;29;20100;-85
2020/12/22 09:41:10;;;;;;;0.20;0.15;;;10.30;99.90;;;;;;4959493;29;20039;-86
2020/12/22 09:43:36;;;;;;;0.10;0.10;;;10.30;99.90;;;;;;4927590;29;20031;-85
2020/12/22 09:46:01;;;;;;;0.20;0.10;;;10.40;99.90;;;;;;4941057;29;20130;-85
2020/12/22 09:48:27;;;;;;;1.33;0.20;;;10.40;99.90;;;;;;4943220;28;20027;-85
2020/12/22 09:50:53;;;;;;;4.32;0.30;;;10.40;99.90;;;;;;4955470;29;20201;-85
2020/12/22 09:53:19;;;;;;;0.20;0.20;;;10.40;99.90;;;;;;4943675;29;20126;-84
2020/12/22 09:55:45;;;;;;;1.40;0.10;;;10.50;99.90;;;;;;4941558;29;20042;-85
2020/12/22 09:58:11;;;;;;;0.13;0.00;;;10.50;99.90;;;;;;4949486;29;20043;-85
2020/12/22 10:00:36;;;;;;;0.20;0.17;;;10.50;99.90;;;;;;4943825;29;20039;-84
2020/12/22 10:03:02;;;;;;;0.00;0.00;;;10.50;99.90;;;;;;4962158;29;20077;-85
2020/12/22 10:05:28;;;;;;;0.10;0.10;;;10.50;99.90;;;;;;4927811;29;20043;-84
2020/12/22 10:07:54;;;;;;;2.65;0.25;;;10.50;99.90;;;;;;4940056;29;20030;-88
2020/12/22 10:10:20;;;;;;;0.00;0.00;;;10.50;99.90;;;;;;4921778;29;20039;-86
2020/12/22 10:12:45;;;;;;;0.10;0.10;;;10.50;99.90;;;;;;4957283;28;20060;-86
2020/12/22 10:15:11;;;;;;;2.53;0.10;;;10.50;99.90;;;;;;4957370;29;20093;-86
2020/12/22 10:17:37;;;;;;;0.10;0.03;;;10.60;99.90;;;;;;4926520;29;20043;-86
2020/12/22 10:20:04;;;;;;;0.00;0.00;;;10.60;99.90;;;;;;4925222;29;20064;-85
2020/12/22 10:22:30;;;;;;;0.20;0.00;;;10.60;99.90;;;;;;4944426;28;20059;-85
2020/12/22 10:24:56;;;;;;;0.20;0.20;;;10.70;99.90;;;;;;4940332;29;20039;-86
2020/12/22 10:27:22;;;;;;;0.00;0.00;;;10.70;99.90;;;;;;4942257;29;20486;-86
2020/12/22 10:29:47;;;;;;;0.10;0.10;;;10.80;99.90;;;;;;4959287;29;20035;-86
2020/12/22 10:32:13;;;;;;;0.10;0.10;;;10.90;99.90;;;;;;4959008;29;20035;-85
2020/12/22 10:34:39;;;;;;;0.00;0.00;;;10.90;99.90;;;;;;4958150;29;20031;-86
2020/12/22 10:37:05;;;;;;;0.17;0.10;;;10.90;99.90;;;;;;4939239;29;20027;-86
2020/12/22 10:39:30;;;;;;;0.10;0.10;;;10.90;99.90;;;;;;4933420;29;20039;-88
2020/12/22 10:41:57;;;;;;;0.00;0.00;;;10.90;99.90;;;;;;4931668;29;20031;-86
2020/12/22 10:44:23;;;;;;;0.10;0.00;;;11.00;99.90;;;;;;4956125;29;20452;-85
2020/12/22 10:46:49;;;;;;;0.32;0.03;;;11.00;99.90;;;;;;4944755;29;20510;-85
2020/12/22 10:49:15;;;;;;;0.00;0.00;;;11.00;99.90;;;;;;4891664;29;20035;-85
2020/12/22 10:51:40;;;;;;;30.73;0.95;;;11.00;99.90;;;;;;4934052;29;20095;-86
2020/12/22 10:54:06;;;;;;;0.10;0.00;;;11.00;99.90;;;;;;4941338;29;20074;-86
2020/12/22 10:56:32;;;;;;;6.68;0.28;;;11.00;99.90;;;;;;4955734;29;20093;-84
2020/12/22 10:58:58;;;;;;;0.20;0.20;;;11.00;99.90;;;;;;4956018;29;20093;-85
2020/12/22 11:01:24;;;;;;;0.47;0.10;;;11.00;99.90;;;;;;4939800;29;20042;-85
2020/12/22 11:03:50;;;;;;;0.35;0.22;;;11.00;99.90;;;;;;4951633;29;20118;-84
2020/12/22 11:06:22;;;;;;;0.10;0.10;;;11.00;99.90;;;;;;4932769;29;20505;-86
2020/12/22 11:08:49;;;;;;;0.10;0.10;;;11.00;99.90;;;;;;4943866;29;20030;-86
2020/12/22 11:11:15;;;;;;;0.10;0.10;;;11.00;99.90;;;;;;4918171;29;20051;-84
2020/12/22 11:13:41;;;;;;;0.10;0.10;;;11.00;99.90;;;;;;4930057;29;20036;-84
2020/12/22 11:16:07;;;;;;;0.15;0.10;;;11.00;99.90;;;;;;4948454;28;20090;-84
2020/12/22 11:18:35;;;;;;;0.80;0.10;;;11.00;99.90;;;;;;4934655;29;20032;-85
2020/12/22 11:21:02;;;;;;;0.00;0.00;;;11.00;99.90;;;;;;4947163;29;20032;-84
2020/12/22 11:23:28;;;;;;;0.00;0.00;;;11.00;99.90;;;;;;4940625;29;20125;-84
2020/12/22 11:25:53;;;;;;;9.43;0.30;;;11.00;99.90;;;;;;4929503;29;20524;-85
2020/12/22 11:28:19;;;;;;;0.10;0.10;;;11.00;99.90;;;;;;4930218;29;20486;-85
2020/12/22 11:30:45;;;;;;;0.10;0.10;;;11.00;99.90;;;;;;4940739;29;20028;-85
2020/12/22 11:33:11;;;;;;;0.00;0.00;;;10.90;99.90;;;;;;4921605;29;20074;-85
2020/12/22 11:35:37;;;;;;;0.10;0.10;;;11.00;99.90;;;;;;4931557;29;20085;-85
2020/12/22 11:38:03;;;;;;;0.80;0.17;;;11.00;99.90;;;;;;4934514;29;20496;-84
2020/12/22 11:40:28;;;;;;;0.10;0.10;;;11.00;99.90;;;;;;4927023;29;20150;-85
2020/12/22 11:42:54;;;;;;;0.10;0.10;;;11.00;99.90;;;;;;4946458;29;20513;-86
2020/12/22 11:45:20;;;;;;;0.10;0.10;;;11.00;99.90;;;;;;4946082;29;20383;-85
2020/12/22 11:47:46;;;;;;;0.10;0.10;;;11.00;99.90;;;;;;4938904;29;20027;-85
2020/12/22 11:50:11;;;;;;;0.10;0.10;;;11.00;99.90;;;;;;4946621;29;20034;-86
2020/12/22 11:52:37;;;;;;;0.30;0.20;;;11.00;99.90;;;;;;4955305;29;20110;-85
2020/12/22 11:55:04;;;;;;;13.48;0.68;;;11.00;99.90;;;;;;4950471;29;20311;-84
2020/12/22 11:57:30;;;;;;;0.10;0.10;;;11.00;99.90;;;;;;4937488;29;20031;-85
2020/12/22 11:59:55;;;;;;;0.20;0.20;;;11.00;99.90;;;;;;4952561;28;20438;-83
2020/12/22 12:02:21;;;;;;;0.43;0.20;;;11.00;99.90;;;;;;4925044;29;20050;-84
2020/12/22 12:04:47;;;;;;;0.20;0.20;;;11.10;99.90;;;;;;4954495;29;20482;-84
2020/12/22 12:07:13;;;;;;;1.23;0.40;;;11.10;99.90;;;;;;4937820;29;20505;-83
2020/12/22 12:09:38;;;;;;;0.20;0.20;;;11.00;99.90;;;;;;4925927;29;20134;-87
2020/12/22 12:12:04;;;;;;;0.20;0.20;;;11.10;99.90;;;;;;4939878;29;20032;-84
2020/12/22 12:14:30;;;;;;;0.25;0.20;;;11.10;99.90;;;;;;4933186;29;20027;-84
2020/12/22 12:16:55;;;;;;;0.20;0.20;;;11.10;99.90;;;;;;4956610;28;20027;-84
2020/12/22 12:19:21;;;;;;;0.30;0.20;;;11.10;99.90;;;;;;4947214;29;20078;-83
2020/12/22 12:21:47;;;;;;;1.35;0.20;;;11.10;99.90;;;;;;4921956;29;20042;-84
2020/12/22 12:24:13;;;;;;;0.10;0.10;;;11.10;99.90;;;;;;4949283;29;20055;-85
2020/12/22 12:26:39;;;;;;;0.30;0.30;;;11.10;99.90;;;;;;4931948;29;20031;-84
2020/12/22 12:29:06;;;;;;;0.10;0.10;;;11.20;99.90;;;;;;4952704;29;20039;-85
2020/12/22 12:31:32;;;;;;;0.20;0.10;;;11.20;99.90;;;;;;4917331;29;20074;-85
2020/12/22 12:33:59;;;;;;;2.65;0.30;;;11.30;99.90;;;;;;4938786;29;20045;-85
2020/12/22 12:36:25;;;;;;;0.22;0.20;;;11.30;99.90;;;;;;4957846;29;20458;-86
2020/12/22 12:38:51;;;;;;;0.30;0.30;;;11.30;99.90;;;;;;4946623;29;20035;-85
2020/12/22 12:41:17;;;;;;;0.35;0.20;;;11.30;99.90;;;;;;4940230;29;20035;-84
2020/12/22 12:43:42;;;;;;;0.20;0.20;;;11.40;99.90;;;;;;4944582;29;20503;-82
2020/12/22 12:46:09;;;;;;;0.20;0.20;;;11.40;99.90;;;;;;4955264;28;20134;-83
2020/12/22 12:48:36;;;;;;;0.10;0.10;;;11.40;99.90;;;;;;4959842;28;20179;-84
2020/12/22 12:51:05;;;;;;;0.30;0.20;;;11.40;99.90;;;;;;4965043;28;20046;-84
2020/12/22 12:53:31;;;;;;;0.20;0.20;;;11.40;99.90;;;;;;4938040;29;20039;-84